Time;durP1;ratioP1;P1;durP2;ratioP2;P2;SDS_P1;SDS_P2;PMS_P1;PMS_P2;Temp;Humidity;BMP_temperature;BMP_pressure;BME280_temperature;BME280_humidity;BME280_pressure;Samples;Min_cycle;Max_cycle;Signal;HPM_P1;HPM_P2
2022/02/28 00:02:03;;;;;;;;;8.00;6.50;;;;;18.56;26.90;102205.47;5077895;27;45437;-52
2022/02/28 00:04:29;;;;;;;;;5.25;5.25;;;;;18.55;26.87;102206.38;5077863;27;45304;-56
2022/02/28 00:06:54;;;;;;;;;7.50;6.25;;;;;18.56;27.00;102212.50;5077401;27;45421;-54
2022/02/28 00:09:20;;;;;;;;;8.75;6.75;;;;;18.57;27.14;102209.00;5076142;27;45410;-52
2022/02/28 00:11:46;;;;;;;;;10.50;5.50;;;;;18.61;26.97;102205.38;5077364;28;45495;-54
2022/02/28 00:14:11;;;;;;;;;7.25;6.00;;;;;18.68;26.93;102201.69;5077417;28;45384;-56
2022/02/28 00:16:37;;;;;;;;;7.00;5.00;;;;;18.74;26.78;102211.19;5077592;27;46500;-54
2022/02/28 00:19:03;;;;;;;;;8.00;7.00;;;;;18.77;27.01;102211.97;5077238;27;45173;-53
2022/02/28 00:21:28;;;;;;;;;6.50;5.00;;;;;18.87;26.66;102224.84;5077469;27;45219;-54
2022/02/28 00:23:54;;;;;;;;;9.25;6.00;;;;;18.90;26.84;102224.78;5077336;27;45307;-52
2022/02/28 00:26:20;;;;;;;;;6.00;6.00;;;;;18.99;26.60;102224.56;5077081;27;46636;-53
2022/02/28 00:28:45;;;;;;;;;5.75;5.75;;;;;19.06;26.84;102226.13;5077163;27;45438;-55
2022/02/28 00:31:11;;;;;;;;;5.50;5.50;;;;;19.13;26.79;102226.81;5076058;27;45413;-53
2022/02/28 00:33:36;;;;;;;;;6.00;5.00;;;;;19.19;26.81;102229.25;5077616;27;45443;-54
2022/02/28 00:36:02;;;;;;;;;5.75;4.75;;;;;19.24;26.71;102232.63;5077011;27;45381;-53
2022/02/28 00:38:28;;;;;;;;;6.75;6.00;;;;;19.31;26.48;102230.69;5076920;27;45305;-49
2022/02/28 00:40:53;;;;;;;;;6.50;5.00;;;;;19.36;26.50;102230.56;5075866;27;45529;-53
2022/02/28 00:43:18;;;;;;;;;6.00;6.00;;;;;19.38;26.56;102232.25;5077201;27;45492;-54
2022/02/28 00:45:44;;;;;;;;;8.50;6.00;;;;;19.44;26.61;102221.56;5076840;27;46121;-54
2022/02/28 00:48:10;;;;;;;;;7.00;7.00;;;;;19.49;26.31;102224.06;5077226;27;45502;-55
2022/02/28 00:50:35;;;;;;;;;4.25;3.50;;;;;19.52;26.65;102223.09;5077338;28;45219;-54
2022/02/28 00:53:01;;;;;;;;;5.25;4.75;;;;;19.56;26.17;102233.50;5077070;27;45215;-54
2022/02/28 00:55:26;;;;;;;;;5.00;5.00;;;;;19.61;26.39;102235.97;5075295;27;47196;-54
2022/02/28 00:57:52;;;;;;;;;6.25;5.75;;;;;19.63;26.37;102228.91;5076758;28;45340;-54
2022/02/28 01:00:18;;;;;;;;;6.00;5.00;;;;;19.66;26.24;102233.22;5076875;27;45424;-52
2022/02/28 01:02:45;;;;;;;;;6.00;6.00;;;;;19.66;26.31;102234.09;5076955;28;45388;-51
2022/02/28 01:05:12;;;;;;;;;6.50;5.00;;;;;19.69;26.16;102233.97;5076728;27;45383;-52
2022/02/28 01:07:37;;;;;;;;;7.00;7.00;;;;;19.70;26.33;102240.13;5076994;27;45448;-49
2022/02/28 01:10:08;;;;;;;;;6.00;4.75;;;;;19.70;25.84;102248.84;5076671;27;45905;-53
2022/02/28 01:12:34;;;;;;;;;6.75;6.75;;;;;19.72;26.03;102246.19;5076849;27;45449;-53
2022/02/28 01:15:00;;;;;;;;;5.00;5.00;;;;;19.71;26.29;102247.09;5076273;27;45581;-52
2022/02/28 01:17:25;;;;;;;;;8.50;7.00;;;;;19.71;26.04;102245.31;5076482;27;45901;-50
2022/02/28 01:19:51;;;;;;;;;5.75;5.75;;;;;19.72;26.37;102249.69;5076488;27;45398;-53
2022/02/28 01:22:16;;;;;;;;;4.75;4.75;;;;;19.73;25.96;102246.16;5076648;27;45651;-49
2022/02/28 01:24:42;;;;;;;;;4.00;3.00;;;;;19.74;25.85;102252.25;5076620;28;45372;-53
2022/02/28 01:27:08;;;;;;;;;5.50;5.00;;;;;19.74;26.04;102249.63;5076531;27;45287;-54
2022/02/28 01:29:34;;;;;;;;;5.00;5.00;;;;;19.73;26.16;102243.53;5076392;27;45416;-49
2022/02/28 01:31:59;;;;;;;;;6.75;4.75;;;;;19.73;26.07;102243.53;5076605;28;45570;-53
2022/02/28 01:34:25;;;;;;;;;5.50;4.50;;;;;19.73;26.20;102246.16;5076133;27;46524;-53
2022/02/28 01:36:50;;;;;;;;;6.50;5.50;;;;;19.72;25.77;102244.41;5076211;27;45247;-53
2022/02/28 01:39:16;;;;;;;;;6.75;6.75;;;;;19.71;25.99;102247.97;5076375;27;45629;-53
2022/02/28 01:41:41;;;;;;;;;5.25;5.00;;;;;19.70;25.71;102248.00;5076731;27;45503;-52
2022/02/28 01:44:08;;;;;;;;;5.50;5.50;;;;;19.66;25.88;102231.47;5074858;28;45280;-53
2022/02/28 01:46:34;;;;;;;;;4.25;4.25;;;;;19.65;26.05;102240.25;5076123;27;45238;-51
2022/02/28 01:49:00;;;;;;;;;4.50;4.50;;;;;19.63;25.69;102235.03;5076155;27;45362;-52
2022/02/28 01:51:26;;;;;;;;;5.25;5.25;;;;;19.61;26.33;102235.97;5075020;27;45381;-52
2022/02/28 01:53:52;;;;;;;;;4.50;4.50;;;;;19.60;25.89;102236.88;5075946;27;46195;-54
2022/02/28 01:56:17;;;;;;;;;5.00;5.00;;;;;19.57;25.96;102227.31;5075890;28;45504;-53
2022/02/28 01:58:44;;;;;;;;;3.00;3.00;;;;;19.55;26.13;102231.75;5075192;28;45812;-53
2022/02/28 02:01:10;;;;;;;;;6.00;4.00;;;;;19.53;26.30;102224.84;5076644;28;45341;-52
2022/02/28 02:03:35;;;;;;;;;6.00;6.00;;;;;19.51;25.97;102232.78;5075753;27;46138;-53
2022/02/28 02:06:01;;;;;;;;;5.00;5.00;;;;;19.50;26.18;102227.53;5091527;27;45271;-50
2022/02/28 02:08:26;;;;;;;;;5.00;5.00;;;;;19.50;26.38;102227.53;5075573;27;45365;-51
2022/02/28 02:10:52;;;;;;;;;6.00;5.75;;;;;19.48;26.13;102230.22;5076004;27;45631;-51
2022/02/28 02:13:18;;;;;;;;;7.00;5.25;;;;;19.46;26.43;102226.78;5075682;28;46085;-49
2022/02/28 02:15:44;;;;;;;;;6.00;5.00;;;;;19.43;26.50;102216.34;5075913;27;45265;-53
2022/02/28 02:18:10;;;;;;;;;6.00;4.75;;;;;19.43;26.46;102219.84;5078047;27;45448;-52
2022/02/28 02:20:37;;;;;;;;;5.25;5.25;;;;;19.39;26.35;102215.56;5079407;27;45495;-52
2022/02/28 02:23:09;;;;;;;;;3.50;3.50;;;;;19.39;26.33;102222.59;5079005;27;46433;-51
2022/02/28 02:25:35;;;;;;;;;6.50;5.50;;;;;19.36;26.71;102226.16;5079115;27;45298;-53
2022/02/28 02:28:03;;;;;;;;;6.25;6.25;;;;;19.34;26.28;102222.75;5079122;27;45379;-52
2022/02/28 02:30:29;;;;;;;;;5.00;5.00;;;;;19.31;26.37;102222.81;5079326;27;45549;-54
2022/02/28 02:32:54;;;;;;;;;5.25;5.00;;;;;19.27;26.51;102213.28;5078868;27;47357;-54
2022/02/28 02:35:20;;;;;;;;;5.25;4.00;;;;;19.25;26.60;102223.84;5079010;27;45495;-53
2022/02/28 02:37:45;;;;;;;;;7.00;6.00;;;;;19.23;26.85;102220.41;5077860;28;45247;-51
2022/02/28 02:40:11;;;;;;;;;6.00;4.75;;;;;19.20;26.40;102215.22;5078215;28;45596;-54
2022/02/28 02:42:36;;;;;;;;;6.00;6.00;;;;;19.17;26.56;102212.69;5078635;27;45596;-53
2022/02/28 02:45:02;;;;;;;;;5.00;5.00;;;;;19.15;26.40;102220.59;5078736;27;45307;-53
2022/02/28 02:47:28;;;;;;;;;6.50;5.25;;;;;19.15;26.31;102217.13;5078905;27;45229;-52
2022/02/28 02:49:53;;;;;;;;;4.75;4.75;;;;;19.11;26.45;102216.34;5078981;27;45245;-53
2022/02/28 02:52:18;;;;;;;;;4.25;4.25;;;;;19.08;26.67;102211.19;5078623;27;46309;-54
2022/02/28 02:54:44;;;;;;;;;6.75;5.75;;;;;19.08;26.44;102219.06;5078992;27;45243;-52
2022/02/28 02:57:09;;;;;;;;;6.50;5.00;;;;;19.07;26.63;102219.97;5078816;27;45338;-56
2022/02/28 02:59:35;;;;;;;;;5.50;5.25;;;;;19.01;26.51;102209.63;5078740;27;45529;-53
2022/02/28 03:02:00;;;;;;;;;6.00;5.75;;;;;19.00;26.70;102213.16;5078375;27;45523;-51
2022/02/28 03:04:25;;;;;;;;;8.00;5.25;;;;;19.00;26.40;102221.03;5078288;27;45248;-48
2022/02/28 03:06:51;;;;;;;;;5.00;4.00;;;;;18.97;26.54;102213.22;5078606;27;45371;-53
2022/02/28 03:09:16;;;;;;;;;6.00;6.00;;;;;18.93;26.78;102212.44;5078939;28;45501;-49
2022/02/28 03:11:44;;;;;;;;;7.00;5.25;;;;;18.96;26.69;102217.59;5078550;27;46069;-51
2022/02/28 03:14:10;;;;;;;;;4.50;4.50;;;;;18.94;26.54;102218.56;5078259;27;45942;-53
2022/02/28 03:16:36;;;;;;;;;3.75;3.75;;;;;18.92;26.78;102220.31;5078548;27;45324;-51
2022/02/28 03:19:02;;;;;;;;;6.25;4.75;;;;;18.90;27.02;102219.53;5078608;27;45531;-52
2022/02/28 03:21:27;;;;;;;;;6.25;5.25;;;;;18.88;26.71;102208.19;5076975;27;46555;-54
2022/02/28 03:23:53;;;;;;;;;5.00;5.00;;;;;18.87;26.96;102206.47;5078096;27;45296;-51
2022/02/28 03:26:18;;;;;;;;;5.75;5.00;;;;;18.83;26.75;102211.78;5078282;27;45228;-52
2022/02/28 03:28:43;;;;;;;;;9.75;4.75;;;;;18.82;26.80;102206.59;5077662;27;45206;-49
2022/02/28 03:31:09;;;;;;;;;4.75;4.75;;;;;18.81;26.79;102224.09;5077875;27;45963;-52
2022/02/28 03:33:35;;;;;;;;;5.75;5.00;;;;;18.77;26.94;102211.97;5077920;28;45304;-53
2022/02/28 03:36:00;;;;;;;;;5.25;5.25;;;;;18.78;26.93;102211.06;5078002;27;45338;-53
2022/02/28 03:38:25;;;;;;;;;4.75;4.25;;;;;18.74;26.39;102198.06;5078253;27;45332;-55
2022/02/28 03:40:51;;;;;;;;;7.75;5.25;;;;;18.74;27.02;102201.53;5077886;27;46993;-54
2022/02/28 03:43:17;;;;;;;;;6.00;5.25;;;;;18.73;27.02;102205.06;5078008;27;45314;-50
2022/02/28 03:45:43;;;;;;;;;8.00;6.25;;;;;18.73;26.85;102209.47;5077928;27;45411;-52
2022/02/28 03:48:08;;;;;;;;;5.00;5.00;;;;;18.70;26.98;102205.13;5078326;27;45580;-53
2022/02/28 03:50:34;;;;;;;;;5.75;4.50;;;;;18.69;26.76;102200.78;5077572;27;46070;-49
2022/02/28 03:52:59;;;;;;;;;7.00;5.00;;;;;18.68;26.97;102201.69;5077805;27;45297;-48
2022/02/28 03:55:25;;;;;;;;;4.00;4.00;;;;;18.67;26.83;102197.34;5077898;27;45459;-50
2022/02/28 03:57:50;;;;;;;;;4.75;4.75;;;;;18.66;27.00;102195.63;5077930;27;45462;-52
2022/02/28 04:00:16;;;;;;;;;7.00;4.75;;;;;18.64;27.02;102195.63;5077877;27;46567;-55
2022/02/28 04:02:41;;;;;;;;;4.50;4.50;;;;;18.62;26.54;102194.84;5077425;27;45324;-54
2022/02/28 04:05:08;;;;;;;;;5.00;5.00;;;;;18.63;27.00;102199.16;5077743;27;45412;-52
2022/02/28 04:07:33;;;;;;;;;5.75;4.00;;;;;18.60;27.01;102193.13;5077761;27;45351;-52
2022/02/28 04:09:59;;;;;;;;;6.00;6.00;;;;;18.61;26.88;102200.13;5077257;27;45332;-52
2022/02/28 04:12:25;;;;;;;;;6.50;5.00;;;;;18.60;27.10;102204.50;5077499;27;45312;-52
2022/02/28 04:14:51;;;;;;;;;3.50;3.50;;;;;18.60;27.02;102201.00;5076067;28;45295;-52
2022/02/28 04:17:16;;;;;;;;;3.50;3.50;;;;;18.61;27.43;102197.47;5076759;28;45276;-52
2022/02/28 04:19:42;;;;;;;;;4.50;4.50;;;;;18.66;27.05;102208.75;5075902;28;47480;-52
2022/02/28 04:22:08;;;;;;;;;4.00;4.00;;;;;18.70;26.85;102199.88;5077085;27;45469;-53
2022/02/28 04:24:33;;;;;;;;;3.00;3.00;;;;;18.77;26.99;102211.09;5077297;27;45440;-52
2022/02/28 04:26:58;;;;;;;;;6.25;4.00;;;;;18.82;27.09;102209.22;5077429;27;45401;-54
2022/02/28 04:29:24;;;;;;;;;3.75;3.75;;;;;18.89;26.82;102210.75;5075885;28;45359;-52
2022/02/28 04:31:50;;;;;;;;;5.50;4.25;;;;;18.94;26.70;102205.41;5077415;27;45867;-54
2022/02/28 04:34:15;;;;;;;;;6.75;5.50;;;;;19.03;26.86;102220.94;5077153;27;45168;-52
2022/02/28 04:36:41;;;;;;;;;4.25;4.25;;;;;19.10;26.63;102216.38;5077484;27;45255;-53
2022/02/28 04:39:10;;;;;;;;;5.00;4.00;;;;;19.16;26.81;102219.69;5076820;27;45978;-53
2022/02/28 04:41:35;;;;;;;;;5.00;4.50;;;;;19.22;26.33;102217.81;5076647;27;45924;-51
2022/02/28 04:44:00;;;;;;;;;4.50;4.00;;;;;19.28;26.78;102212.38;5076878;27;45332;-53
2022/02/28 04:46:26;;;;;;;;;4.00;3.00;;;;;19.34;26.47;102219.22;5077366;27;45355;-53
2022/02/28 04:48:51;;;;;;;;;5.00;5.00;;;;;19.38;26.46;102215.63;5076960;27;45519;-54
2022/02/28 04:51:17;;;;;;;;;5.25;5.25;;;;;19.43;26.66;102222.47;5077108;28;45314;-52
2022/02/28 04:53:42;;;;;;;;;4.00;4.00;;;;;19.45;26.27;102210.16;5075702;27;45454;-56
2022/02/28 04:56:07;;;;;;;;;3.75;3.75;;;;;19.52;26.05;102212.59;5077178;27;45392;-53
2022/02/28 04:58:33;;;;;;;;;3.50;3.50;;;;;19.55;26.10;102215.97;5076660;27;46916;-52
2022/02/28 05:00:58;;;;;;;;;5.00;3.00;;;;;19.56;26.51;102211.59;5076641;27;45390;-54
2022/02/28 05:03:23;;;;;;;;;4.50;4.50;;;;;19.61;26.19;102214.94;5076679;27;45372;-50
2022/02/28 05:05:49;;;;;;;;;4.50;4.50;;;;;19.65;25.98;102218.34;5077200;27;45528;-51
2022/02/28 05:08:18;;;;;;;;;4.00;4.00;;;;;19.67;26.26;102224.41;5076572;27;46169;-50
2022/02/28 05:10:44;;;;;;;;;5.00;4.00;;;;;19.70;25.64;102227.81;5076573;28;45228;-52
2022/02/28 05:13:09;;;;;;;;;6.00;4.75;;;;;19.72;26.14;102228.63;5092309;27;45406;-53
2022/02/28 05:15:34;;;;;;;;;3.25;3.25;;;;;19.73;25.63;102234.78;5076683;27;45291;-53
2022/02/28 05:18:00;;;;;;;;;3.75;3.75;;;;;19.73;25.85;102230.38;5076112;27;45876;-54
2022/02/28 05:20:25;;;;;;;;;3.25;3.25;;;;;19.73;25.74;102233.00;5076471;27;45391;-52
2022/02/28 05:22:50;;;;;;;;;4.00;4.00;;;;;19.74;25.94;102234.72;5076805;27;45621;-54
2022/02/28 05:25:16;;;;;;;;;4.75;3.75;;;;;19.74;25.98;102237.34;5076726;27;45501;-52
2022/02/28 05:27:44;;;;;;;;;4.75;4.75;;;;;19.75;26.11;102249.59;5076328;27;45359;-52
2022/02/28 05:30:11;;;;;;;;;4.25;4.00;;;;;19.75;25.94;102241.72;5076142;27;45881;-52
2022/02/28 05:32:40;;;;;;;;;5.00;3.00;;;;;19.74;25.84;102242.63;5076369;27;45428;-49
2022/02/28 05:35:06;;;;;;;;;3.00;3.00;;;;;19.75;25.89;102240.81;5076718;27;45460;-55
2022/02/28 05:37:31;;;;;;;;;5.00;4.00;;;;;19.73;25.70;102235.63;5076149;27;46988;-55
2022/02/28 05:39:57;;;;;;;;;4.00;4.00;;;;;19.76;25.49;102239.94;5076172;27;45355;-53
2022/02/28 05:42:22;;;;;;;;;4.00;4.00;;;;;19.73;25.58;102233.00;5076692;27;45532;-52
2022/02/28 05:44:47;;;;;;;;;5.25;4.25;;;;;19.74;25.62;102239.09;5075083;27;45358;-53
2022/02/28 05:47:13;;;;;;;;;3.00;3.00;;;;;19.73;25.55;102240.03;5075990;27;46503;-52
2022/02/28 05:49:38;;;;;;;;;6.75;5.25;;;;;19.71;25.89;102242.69;5076076;27;45312;-55
2022/02/28 05:52:04;;;;;;;;;5.00;5.00;;;;;19.68;25.87;102239.28;5076532;27;45419;-51
2022/02/28 05:54:31;;;;;;;;;5.50;4.00;;;;;19.68;25.83;102245.41;5079830;27;45309;-54
2022/02/28 05:56:56;;;;;;;;;4.00;4.00;;;;;19.64;26.12;102243.78;5079470;27;46973;-51
2022/02/28 05:59:22;;;;;;;;;5.00;5.00;;;;;19.65;26.01;102253.41;5079788;27;45245;-55
2022/02/28 06:01:47;;;;;;;;;4.25;3.50;;;;;19.63;25.88;102250.81;5079595;27;45193;-53
2022/02/28 06:04:13;;;;;;;;;4.00;4.00;;;;;19.59;26.03;102266.72;5079720;27;45183;-52
2022/02/28 06:06:38;;;;;;;;;6.00;5.00;;;;;19.56;25.83;102264.19;5079360;27;45913;-52
2022/02/28 06:09:04;;;;;;;;;6.00;4.75;;;;;19.54;26.02;102268.63;5079434;27;45349;-52
2022/02/28 06:11:30;;;;;;;;;4.00;3.50;;;;;19.53;25.68;102274.81;5079551;27;45249;-53
2022/02/28 06:13:56;;;;;;;;;8.75;4.00;;;;;19.54;26.03;102271.25;5079627;27;45510;-54
2022/02/28 06:16:22;;;;;;;;;5.00;5.00;;;;;19.52;25.98;102279.19;5079598;27;45334;-51
2022/02/28 06:18:49;;;;;;;;;5.50;4.75;;;;;19.51;26.28;102268.72;5079250;27;45917;-48
2022/02/28 06:21:14;;;;;;;;;4.50;3.75;;;;;19.49;26.33;102275.78;5079555;27;45460;-53
2022/02/28 06:23:41;;;;;;;;;4.75;4.75;;;;;19.43;26.25;102272.44;5079549;27;45350;-52
2022/02/28 06:26:06;;;;;;;;;5.75;5.00;;;;;19.42;26.25;102278.59;5079080;27;45638;-54
2022/02/28 06:28:32;;;;;;;;;5.00;4.00;;;;;19.40;26.52;102269.88;5079072;27;45336;-52
2022/02/28 06:30:59;;;;;;;;;3.00;3.00;;;;;19.39;26.25;102272.56;5079169;27;45184;-52
2022/02/28 06:33:25;;;;;;;;;4.50;4.50;;;;;19.38;26.26;102268.19;5079656;27;45446;-50
2022/02/28 06:35:51;;;;;;;;;3.25;3.25;;;;;19.34;26.41;102269.19;5078928;27;46203;-52
2022/02/28 06:38:18;;;;;;;;;6.25;5.00;;;;;19.33;26.69;102272.72;5094750;27;45898;-53
2022/02/28 06:40:46;;;;;;;;;7.00;5.00;;;;;19.29;26.48;102267.53;5079085;27;45494;-49
2022/02/28 06:43:20;;;;;;;;;5.75;5.00;;;;;19.27;26.62;102273.75;5078979;27;45323;-52
2022/02/28 06:45:47;;;;;;;;;4.00;4.00;;;;;19.22;26.27;102270.38;5078742;27;45347;-54
2022/02/28 06:48:12;;;;;;;;;4.00;4.00;;;;;19.22;26.58;102286.16;5078761;27;45867;-53
2022/02/28 06:50:38;;;;;;;;;5.00;5.00;;;;;19.19;26.45;102284.44;5077643;28;45717;-52
2022/02/28 06:53:03;;;;;;;;;6.00;4.00;;;;;19.19;26.59;102291.50;5079046;27;45228;-53
2022/02/28 06:55:29;;;;;;;;;5.50;5.50;;;;;19.15;26.55;102288.94;5078534;27;46591;-50
2022/02/28 06:57:54;;;;;;;;;7.00;6.00;;;;;19.13;26.42;102287.25;5078892;27;45957;-52
2022/02/28 07:00:19;;;;;;;;;5.00;4.25;;;;;19.12;26.31;102285.53;5077590;28;45271;-52
2022/02/28 07:02:45;;;;;;;;;5.00;5.00;;;;;19.08;26.33;102287.38;5078831;27;45492;-52
2022/02/28 07:05:10;;;;;;;;;5.00;5.00;;;;;19.05;26.73;102286.59;5078343;27;46406;-55
2022/02/28 07:07:39;;;;;;;;;5.25;5.00;;;;;19.06;26.56;102289.19;5078092;27;54585;-53
2022/02/28 07:10:05;;;;;;;;;5.75;4.75;;;;;19.04;26.45;102296.22;5078584;27;45291;-53
2022/02/28 07:12:31;;;;;;;;;8.00;4.50;;;;;19.01;26.46;102293.72;5077274;28;45374;-53
2022/02/28 07:14:57;;;;;;;;;4.75;4.75;;;;;18.99;26.60;102280.59;5078490;27;45455;-52
2022/02/28 07:17:23;;;;;;;;;6.75;4.75;;;;;18.97;26.51;102282.38;5078321;27;45845;-51
2022/02/28 07:19:49;;;;;;;;;5.50;4.75;;;;;18.94;26.45;102281.59;5078384;27;45417;-49
2022/02/28 07:22:15;;;;;;;;;7.00;6.00;;;;;18.93;26.56;102280.75;5078396;27;45333;-53
2022/02/28 07:24:40;;;;;;;;;5.75;4.75;;;;;18.92;26.57;102281.63;5077903;27;47387;-55
2022/02/28 07:27:05;;;;;;;;;6.00;4.25;;;;;18.91;26.38;102286.91;5078071;27;45494;-51
2022/02/28 07:29:31;;;;;;;;;5.25;5.00;;;;;18.88;26.64;102287.84;5078170;27;45435;-51
2022/02/28 07:31:56;;;;;;;;;4.50;4.50;;;;;18.85;26.65;102283.53;5078639;27;45543;-53
2022/02/28 07:34:22;;;;;;;;;5.25;4.50;;;;;18.81;26.39;102281.88;5077939;27;46078;-52
2022/02/28 07:36:47;;;;;;;;;6.75;5.00;;;;;18.82;26.68;102288.03;5077878;27;45438;-51
2022/02/28 07:39:12;;;;;;;;;4.25;4.25;;;;;18.81;26.45;102291.53;5076671;28;45249;-52
2022/02/28 07:41:38;;;;;;;;;5.00;5.00;;;;;18.78;26.68;102300.38;5078088;27;45332;-52
2022/02/28 07:44:04;;;;;;;;;6.25;5.00;;;;;18.79;26.80;102311.72;5077668;27;45747;-53
2022/02/28 07:46:30;;;;;;;;;5.75;4.75;;;;;18.74;26.48;102314.47;5077924;27;45461;-54
2022/02/28 07:48:55;;;;;;;;;6.75;5.00;;;;;18.75;26.51;102317.94;5078262;27;45271;-53
2022/02/28 07:51:21;;;;;;;;;6.50;6.50;;;;;18.76;26.78;102320.56;5078019;27;45294;-53
2022/02/28 07:53:46;;;;;;;;;5.75;5.50;;;;;18.71;26.77;102314.53;5077724;27;45496;-50
2022/02/28 07:56:12;;;;;;;;;4.50;4.50;;;;;18.73;26.85;102318.00;5077590;27;45178;-54
2022/02/28 07:58:37;;;;;;;;;5.50;4.25;;;;;18.75;26.52;102323.19;5077643;27;45247;-52
2022/02/28 08:01:03;;;;;;;;;5.25;5.25;;;;;18.79;26.76;102323.13;5077991;27;45540;-49
2022/02/28 08:03:28;;;;;;;;;7.00;7.00;;;;;18.82;26.91;102320.38;5076318;28;47103;-54
2022/02/28 08:05:53;;;;;;;;;6.00;5.00;;;;;18.89;26.31;102325.50;5077469;27;45366;-54
2022/02/28 08:08:18;;;;;;;;;2.50;2.00;;;;;18.96;26.40;102319.22;5077645;27;45386;-53
2022/02/28 08:10:44;;;;;;;;;5.00;4.50;;;;;19.02;26.94;102316.44;5076421;28;45284;-53
2022/02/28 08:13:12;;;;;;;;;6.25;6.25;;;;;19.10;26.29;102308.34;5077197;27;46175;-51
2022/02/28 08:15:39;;;;;;;;;6.25;5.25;;;;;19.16;26.23;102316.94;5076692;27;45488;-52
2022/02/28 08:18:04;;;;;;;;;4.50;4.50;;;;;19.21;26.36;102306.31;5076138;28;45311;-52
2022/02/28 08:20:30;;;;;;;;;4.75;4.00;;;;;19.27;26.38;102302.66;5077993;27;45286;-48
2022/02/28 08:22:55;;;;;;;;;5.00;4.00;;;;;19.36;26.19;102305.03;5075930;28;45425;-53
2022/02/28 08:25:21;;;;;;;;;5.00;5.00;;;;;19.40;26.22;102306.69;5077292;27;45310;-51
2022/02/28 08:27:46;;;;;;;;;6.00;5.00;;;;;19.47;26.39;102302.97;5077396;27;45249;-52
2022/02/28 08:30:12;;;;;;;;;7.00;7.00;;;;;19.53;25.99;102306.34;5077477;27;45168;-53
2022/02/28 08:32:37;;;;;;;;;6.50;4.00;;;;;19.57;25.84;102297.47;5077199;27;46550;-53
2022/02/28 08:35:03;;;;;;;;;5.50;5.50;;;;;19.61;26.15;102289.47;5077161;27;45335;-53
2022/02/28 08:37:28;;;;;;;;;5.75;5.00;;;;;19.66;25.81;102289.34;5077566;27;45348;-52
2022/02/28 08:39:54;;;;;;;;;7.25;5.25;;;;;19.69;26.17;102297.13;5075914;28;45428;-52
2022/02/28 08:42:19;;;;;;;;;6.50;6.50;;;;;19.73;25.66;102297.91;5076723;27;45476;-52
2022/02/28 08:44:44;;;;;;;;;6.00;4.50;;;;;19.76;25.80;102296.06;5076919;27;45321;-54
2022/02/28 08:47:10;;;;;;;;;7.00;5.25;;;;;19.77;26.03;102283.75;5077157;27;45364;-52
2022/02/28 08:49:35;;;;;;;;;5.00;5.00;;;;;19.82;25.75;102295.00;5092919;27;45353;-53
2022/02/28 08:52:02;;;;;;;;;5.75;5.75;;;;;19.84;26.12;102305.47;5077188;27;46377;-53
2022/02/28 08:54:27;;;;;;;;;5.75;4.75;;;;;19.87;25.34;102305.44;5076570;28;45795;-50
2022/02/28 08:56:53;;;;;;;;;4.50;4.25;;;;;19.87;25.60;102295.75;5076999;27;45513;-53
2022/02/28 08:59:18;;;;;;;;;6.00;4.75;;;;;19.88;25.58;102291.38;5077240;27;45321;-50
2022/02/28 09:01:44;;;;;;;;;6.00;6.00;;;;;19.90;25.93;102294.78;5076809;27;47013;-49
2022/02/28 09:04:09;;;;;;;;;8.75;6.00;;;;;19.89;25.83;102301.00;5076573;28;45315;-54
2022/02/28 09:06:34;;;;;;;;;6.00;5.50;;;;;19.90;26.02;102295.69;5076846;27;45357;-52
2022/02/28 09:09:00;;;;;;;;;6.00;4.25;;;;;19.90;25.70;102282.50;5077305;27;45544;-56
2022/02/28 09:11:25;;;;;;;;;8.75;5.50;;;;;19.91;25.88;102286.88;5076518;27;46496;-54
2022/02/28 09:13:50;;;;;;;;;5.25;5.25;;;;;19.92;25.53;102298.25;5076574;27;45281;-54
2022/02/28 09:16:16;;;;;;;;;6.00;5.00;;;;;19.91;25.72;102280.72;5076538;28;45456;-54
2022/02/28 09:18:42;;;;;;;;;5.00;5.00;;;;;19.93;25.74;102289.44;5076782;27;45311;-54
2022/02/28 09:21:07;;;;;;;;;7.00;5.75;;;;;19.92;25.50;102293.88;5076397;27;47051;-53
2022/02/28 09:23:33;;;;;;;;;5.75;5.75;;;;;19.90;25.78;102298.31;5076689;27;45418;-56
2022/02/28 09:25:58;;;;;;;;;4.50;4.50;;;;;19.90;25.83;102300.06;5076610;27;45414;-53
2022/02/28 09:28:24;;;;;;;;;7.75;7.00;;;;;19.92;25.30;102319.28;5078991;27;45514;-53
2022/02/28 09:30:49;;;;;;;;;7.50;6.25;;;;;19.90;25.62;102316.72;5079981;27;45386;-56
2022/02/28 09:33:15;;;;;;;;;5.75;5.75;;;;;19.90;25.58;102322.00;5079998;27;45405;-55
2022/02/28 09:35:40;;;;;;;;;8.00;5.25;;;;;19.89;25.24;102319.41;5080261;27;45541;-57
2022/02/28 09:38:05;;;;;;;;;6.25;6.25;;;;;19.88;25.28;102312.41;5080291;27;45529;-52
2022/02/28 09:40:32;;;;;;;;;5.50;5.50;;;;;19.86;25.39;102316.84;5080072;27;46024;-57
2022/02/28 09:43:04;;;;;;;;;6.75;6.50;;;;;19.84;25.57;102327.41;5078547;27;46275;-55
2022/02/28 09:45:30;;;;;;;;;6.00;6.00;;;;;19.82;25.35;102333.59;5080158;27;45268;-55
2022/02/28 09:47:56;;;;;;;;;5.00;5.00;;;;;19.81;25.23;102338.00;5079046;27;45658;-56
2022/02/28 09:50:22;;;;;;;;;7.75;6.25;;;;;19.81;25.78;102338.00;5079681;27;46174;-56
2022/02/28 09:52:47;;;;;;;;;7.25;6.25;;;;;19.77;25.28;102334.59;5079585;27;45357;-55
2022/02/28 09:55:15;;;;;;;;;6.00;6.00;;;;;19.75;25.38;102336.41;5095501;27;45316;-56
2022/02/28 09:57:53;;;;;;;;;6.25;5.00;;;;;19.74;25.30;102326.78;5079972;27;45572;-56
2022/02/28 10:00:23;;;;;;;;;5.00;4.25;;;;;19.70;25.36;102330.41;5079473;27;46510;-56
2022/02/28 10:02:53;;;;;;;;;6.50;6.25;;;;;19.71;25.69;102329.50;5078033;28;45745;-54
2022/02/28 10:05:19;;;;;;;;;7.50;6.25;;;;;19.70;25.26;102327.78;5061611;28;45338;-55
2022/02/28 10:07:51;;;;;;;;;7.50;7.00;;;;;19.68;25.82;102321.69;5079732;27;45211;-51
2022/02/28 10:10:18;;;;;;;;;6.25;5.25;;;;;19.68;25.84;102311.16;5079400;27;45977;-51
2022/02/28 10:12:44;;;;;;;;;9.00;7.75;;;;;19.63;25.87;102311.31;5079406;28;45262;-53
2022/02/28 10:15:13;;;;;;;;;6.25;5.00;;;;;19.65;26.01;102319.16;5079322;27;45319;-53
2022/02/28 10:17:41;;;;;;;;;8.50;7.00;;;;;19.64;25.85;102312.19;5078327;28;45407;-52
2022/02/28 10:20:34;;;;;;;;;8.25;7.00;;;;;19.63;25.63;102310.44;5079505;27;45919;-53
2022/02/28 10:23:04;;;;;;;;;5.25;5.25;;;;;19.59;25.84;102311.44;5079103;27;45787;-52
2022/02/28 10:25:35;;;;;;;;;7.50;6.25;;;;;19.61;25.63;102325.41;5077942;28;45326;-50
2022/02/28 10:28:17;;;;;;;;;6.00;6.00;;;;;19.59;25.76;102321.94;5079335;27;45313;-51
2022/02/28 10:31:00;;;;;;;;;5.50;5.50;;;;;19.55;26.02;102323.81;5078843;27;46598;-50
2022/02/28 10:33:39;;;;;;;;;5.50;5.50;;;;;19.56;25.80;102335.22;5079135;27;45795;-54
2022/02/28 10:36:17;;;;;;;;;7.00;6.00;;;;;19.52;26.36;102337.03;5079588;27;45546;-52
2022/02/28 10:38:50;;;;;;;;;3.50;3.50;;;;;19.50;26.10;102341.50;5078472;27;45561;-56
2022/02/28 10:41:20;;;;;;;;;7.00;7.00;;;;;19.51;25.89;102340.59;5078851;27;46494;-53
2022/02/28 10:43:46;;;;;;;;;6.00;6.00;;;;;19.49;25.83;102334.50;5078838;27;46107;-50
2022/02/28 10:46:19;;;;;;;;;6.25;6.25;;;;;19.49;26.14;102336.25;5079007;27;45318;-53
2022/02/28 10:49:16;;;;;;;;;5.00;5.00;;;;;19.49;25.92;102323.09;5094915;27;45422;-51
2022/02/28 10:52:04;;;;;;;;;9.00;7.00;;;;;19.46;25.71;102319.66;5078248;28;46356;-53
2022/02/28 10:54:39;;;;;;;;;5.00;5.00;;;;;19.45;26.38;102324.97;5078627;27;45849;-53
2022/02/28 10:57:06;;;;;;;;;6.75;6.75;;;;;19.43;26.22;102321.50;5079137;27;45317;-48
2022/02/28 10:59:52;;;;;;;;;5.00;5.00;;;;;19.43;25.94;102334.66;5078948;27;45193;-52
2022/02/28 11:02:27;;;;;;;;;6.50;6.50;;;;;19.42;26.28;102333.81;5078379;27;46662;-54
2022/02/28 11:05:07;;;;;;;;;5.75;5.75;;;;;19.40;25.81;102332.97;5078641;27;45914;-52
2022/02/28 11:07:43;;;;;;;;;7.50;7.50;;;;;19.37;26.14;102330.41;5078727;27;45466;-53
2022/02/28 11:10:09;;;;;;;;;7.00;6.25;;;;;19.37;26.04;102327.78;5079092;27;45310;-50
2022/02/28 11:12:35;;;;;;;;;7.50;7.50;;;;;19.37;26.15;102330.41;5076993;27;47918;-53
2022/02/28 11:15:04;;;;;;;;;6.00;6.00;;;;;19.35;26.01;102334.84;5078121;27;45450;-51
2022/02/28 11:17:31;;;;;;;;;6.00;6.00;;;;;19.35;26.00;102339.25;5078500;28;45378;-54
2022/02/28 11:19:59;;;;;;;;;5.00;5.00;;;;;19.32;26.43;102319.19;5078588;27;45478;-49
2022/02/28 11:22:26;;;;;;;;;7.50;7.50;;;;;19.30;26.18;102319.22;5078013;27;46642;-52